Time;durP1;ratioP1;P1;durP2;ratioP2;P2;SDS_P1;SDS_P2;PMS_P1;PMS_P2;Temp;Humidity;BMP_temperature;BMP_pressure;BME280_temperature;BME280_humidity;BME280_pressure;Samples;Min_cycle;Max_cycle;Signal;HPM_P1;HPM_P2
2023/09/10 00:01:37;;;;;;;13.70;6.68;;;20.60;99.90;;;;;;5110785;28;20059;-51
2023/09/10 00:04:03;;;;;;;10.32;6.07;;;20.60;99.90;;;;;;5110261;28;20444;-49
2023/09/10 00:06:29;;;;;;;10.68;6.20;;;20.50;99.90;;;;;;5110760;28;20114;-58
2023/09/10 00:08:54;;;;;;;7.93;5.47;;;20.50;99.90;;;;;;5110055;28;20444;-47
2023/09/10 00:11:20;;;;;;;9.63;6.50;;;20.50;99.90;;;;;;5110455;28;20016;-54
2023/09/10 00:13:45;;;;;;;10.23;6.50;;;20.40;99.90;;;;;;5110649;28;20063;-53
2023/09/10 00:16:11;;;;;;;9.05;6.05;;;20.40;99.90;;;;;;5110391;28;20020;-54
2023/09/10 00:18:36;;;;;;;9.52;6.78;;;20.30;99.90;;;;;;5109682;28;20103;-58
2023/09/10 00:21:02;;;;;;;12.43;6.65;;;20.30;99.90;;;;;;5110265;28;20012;-60
2023/09/10 00:23:28;;;;;;;10.00;6.40;;;20.30;99.90;;;;;;5110305;28;20130;-60
2023/09/10 00:25:56;;;;;;;12.25;7.53;;;20.20;99.90;;;;;;5110185;28;20150;-57
2023/09/10 00:28:22;;;;;;;10.02;7.15;;;20.20;99.90;;;;;;5110430;28;20077;-56
2023/09/10 00:30:54;;;;;;;9.85;6.60;;;20.10;99.90;;;;;;5110319;28;20031;-61
2023/09/10 00:33:20;;;;;;;10.45;7.07;;;20.10;99.90;;;;;;5109067;28;20020;-55
2023/09/10 00:35:45;;;;;;;12.95;6.43;;;20.10;99.90;;;;;;5110360;28;20028;-59
2023/09/10 00:38:11;;;;;;;9.57;6.85;;;20.00;99.90;;;;;;5110167;28;20395;-48
2023/09/10 00:40:37;;;;;;;11.52;7.13;;;20.00;99.90;;;;;;5112934;28;20019;-53
2023/09/10 00:43:02;;;;;;;9.82;6.40;;;20.00;99.90;;;;;;5100341;28;20070;-59
2023/09/10 00:45:30;;;;;;;9.98;6.68;;;19.90;99.90;;;;;;5112639;28;20028;-55
2023/09/10 00:47:56;;;;;;;8.93;6.53;;;19.90;99.90;;;;;;5113756;28;20028;-60
2023/09/10 00:50:22;;;;;;;8.25;5.93;;;19.80;99.90;;;;;;5113675;28;20020;-55
2023/09/10 00:52:57;;;;;;;9.85;6.15;;;19.80;99.90;;;;;;5113444;28;20038;-59
2023/09/10 00:55:26;;;;;;;10.75;7.03;;;19.80;99.90;;;;;;5113867;28;20055;-53
2023/09/10 00:57:52;;;;;;;12.10;6.90;;;19.80;99.90;;;;;;5113716;28;20022;-56
2023/09/10 01:00:19;;;;;;;11.10;6.22;;;19.80;99.90;;;;;;5112564;28;20103;-46
2023/09/10 01:02:44;;;;;;;11.90;6.70;;;19.70;99.90;;;;;;5113062;28;20042;-55
2023/09/10 01:05:11;;;;;;;9.18;5.97;;;19.70;99.90;;;;;;5113540;28;20023;-56
2023/09/10 01:07:38;;;;;;;8.65;6.25;;;19.70;99.90;;;;;;5112999;28;20040;-56
2023/09/10 01:10:05;;;;;;;10.35;6.13;;;19.70;99.90;;;;;;5113686;28;20196;-56
2023/09/10 01:12:47;;;;;;;9.23;6.57;;;19.70;99.90;;;;;;5113200;27;20019;-55
2023/09/10 01:15:28;;;;;;;11.95;6.53;;;19.70;99.90;;;;;;5113001;28;20466;-58
2023/09/10 01:18:04;;;;;;;10.48;6.80;;;19.70;99.90;;;;;;5112903;28;20038;-49
2023/09/10 01:20:39;;;;;;;10.27;6.53;;;19.70;99.90;;;;;;5113482;28;20158;-62
2023/09/10 01:23:13;;;;;;;8.95;6.32;;;19.60;99.90;;;;;;5085823;28;20122;-56
2023/09/10 01:25:40;;;;;;;9.80;6.45;;;19.60;99.90;;;;;;5113173;28;20123;-54
2023/09/10 01:28:06;;;;;;;11.05;6.78;;;19.60;99.90;;;;;;5112560;27;20046;-56
2023/09/10 01:30:32;;;;;;;9.40;6.40;;;19.50;99.90;;;;;;5111957;28;20024;-52
2023/09/10 01:33:29;;;;;;;8.55;5.95;;;19.50;99.90;;;;;;5112280;28;20092;-60
2023/09/10 01:36:10;;;;;;;9.65;6.38;;;19.40;99.90;;;;;;5089513;28;20036;-58
2023/09/10 01:38:43;;;;;;;10.55;6.35;;;19.40;99.90;;;;;;5078386;28;20027;-47
2023/09/10 01:41:21;;;;;;;10.93;6.25;;;19.30;99.90;;;;;;5092555;28;20089;-49
2023/09/10 01:43:48;;;;;;;9.48;6.20;;;19.30;99.90;;;;;;5092083;28;20048;-54
2023/09/10 01:46:15;;;;;;;10.55;7.35;;;19.30;99.90;;;;;;5092451;28;20047;-52
2023/09/10 01:48:41;;;;;;;8.23;5.95;;;19.40;99.90;;;;;;5092352;28;20043;-52
2023/09/10 01:51:07;;;;;;;8.98;6.45;;;19.40;99.90;;;;;;5091478;28;20373;-50
2023/09/10 01:53:33;;;;;;;8.80;6.55;;;19.40;99.90;;;;;;5092047;28;20392;-56
2023/09/10 01:55:58;;;;;;;9.40;5.65;;;19.30;99.90;;;;;;5125151;27;20028;-54
2023/09/10 01:58:24;;;;;;;10.70;6.03;;;19.30;99.90;;;;;;5092164;28;20063;-51
2023/09/10 02:00:49;;;;;;;10.45;6.07;;;19.20;99.90;;;;;;5092189;28;20101;-51
2023/09/10 02:03:15;;;;;;;10.57;7.00;;;19.10;99.90;;;;;;5091912;28;20551;-50
2023/09/10 02:05:44;;;;;;;7.43;5.43;;;19.10;99.90;;;;;;5091927;28;20034;-50
2023/09/10 02:08:09;;;;;;;9.30;5.95;;;19.20;99.90;;;;;;5091327;28;20166;-52
2023/09/10 02:10:36;;;;;;;7.32;5.43;;;19.20;99.90;;;;;;5091832;28;20532;-53
2023/09/10 02:13:03;;;;;;;9.48;6.30;;;19.20;99.90;;;;;;5091846;28;20028;-53
2023/09/10 02:15:29;;;;;;;8.57;5.15;;;19.10;99.90;;;;;;5089889;28;20365;-54
2023/09/10 02:17:55;;;;;;;6.63;5.05;;;19.10;99.90;;;;;;5091804;28;20028;-56
2023/09/10 02:20:21;;;;;;;8.65;5.10;;;19.00;99.90;;;;;;5090253;28;20036;-51
2023/09/10 02:22:47;;;;;;;8.68;5.32;;;18.90;99.90;;;;;;5091346;28;20128;-53
2023/09/10 02:25:12;;;;;;;7.45;5.22;;;18.90;99.90;;;;;;5091735;28;20028;-53
2023/09/10 02:27:38;;;;;;;6.97;5.07;;;18.90;99.90;;;;;;5091572;28;20502;-45
2023/09/10 02:30:05;;;;;;;11.68;5.63;;;18.80;99.90;;;;;;5091444;28;20452;-50
2023/09/10 02:32:32;;;;;;;8.38;5.40;;;18.80;99.90;;;;;;5091298;28;20093;-47
2023/09/10 02:34:57;;;;;;;7.43;4.90;;;18.80;99.90;;;;;;5091051;28;20023;-47
2023/09/10 02:37:23;;;;;;;6.75;4.82;;;18.70;99.90;;;;;;5091348;28;20500;-50
2023/09/10 02:39:48;;;;;;;12.63;5.53;;;18.70;99.90;;;;;;5091248;28;20020;-50
2023/09/10 02:42:14;;;;;;;9.13;5.82;;;18.70;99.90;;;;;;5090754;28;20131;-50
2023/09/10 02:44:40;;;;;;;8.93;6.05;;;18.60;99.90;;;;;;5091054;28;20101;-51
2023/09/10 02:47:06;;;;;;;8.32;6.03;;;18.70;99.90;;;;;;5091138;28;20031;-53
2023/09/10 02:49:32;;;;;;;7.55;5.65;;;18.70;99.90;;;;;;5090914;28;20062;-54
2023/09/10 02:51:58;;;;;;;13.07;6.53;;;18.70;99.90;;;;;;5090963;28;20028;-55
2023/09/10 02:54:24;;;;;;;10.05;6.63;;;18.70;99.90;;;;;;5090724;28;20016;-55
2023/09/10 02:56:52;;;;;;;10.05;6.65;;;18.70;99.90;;;;;;5091014;28;20047;-58
2023/09/10 02:59:25;;;;;;;10.02;6.38;;;18.60;99.90;;;;;;5091117;28;20054;-57
2023/09/10 03:01:51;;;;;;;8.38;6.20;;;18.70;99.90;;;;;;5090451;28;20082;-58
2023/09/10 03:04:18;;;;;;;11.68;6.13;;;18.70;99.90;;;;;;5090469;28;20028;-53
2023/09/10 03:06:44;;;;;;;11.23;6.70;;;18.70;99.90;;;;;;5090421;28;20023;-56
2023/09/10 03:09:11;;;;;;;10.13;6.53;;;18.70;99.90;;;;;;5091053;28;20024;-62
2023/09/10 03:11:38;;;;;;;8.60;5.90;;;18.70;99.90;;;;;;5090778;28;20016;-60
2023/09/10 03:14:04;;;;;;;8.98;6.05;;;18.70;99.90;;;;;;5090875;28;20024;-46
2023/09/10 03:16:31;;;;;;;8.98;6.07;;;18.70;99.90;;;;;;5090421;28;20039;-59
2023/09/10 03:18:56;;;;;;;10.77;5.95;;;18.70;99.90;;;;;;5090685;28;20383;-57
2023/09/10 03:21:22;;;;;;;11.25;5.70;;;18.70;99.90;;;;;;5090800;28;20031;-56
2023/09/10 03:23:48;;;;;;;10.45;5.75;;;18.70;99.90;;;;;;5090701;28;20123;-53
2023/09/10 03:26:13;;;;;;;10.07;6.03;;;18.70;99.90;;;;;;5090818;28;20051;-57
2023/09/10 03:28:40;;;;;;;8.30;5.65;;;18.70;99.90;;;;;;5090460;28;20417;-53
2023/09/10 03:31:06;;;;;;;10.82;6.20;;;18.70;99.90;;;;;;5090615;28;20032;-51
2023/09/10 03:33:32;;;;;;;8.95;5.55;;;18.70;99.90;;;;;;5090343;28;20111;-48
2023/09/10 03:35:57;;;;;;;8.65;5.80;;;18.80;99.90;;;;;;5090627;28;20048;-51
2023/09/10 03:38:23;;;;;;;9.18;6.32;;;18.70;99.90;;;;;;5090370;28;20056;-53
2023/09/10 03:40:48;;;;;;;8.75;6.22;;;18.80;99.90;;;;;;5090625;28;20032;-52
2023/09/10 03:43:15;;;;;;;13.02;6.32;;;18.70;99.90;;;;;;5090040;28;20048;-54
2023/09/10 03:45:41;;;;;;;10.00;6.32;;;18.70;99.90;;;;;;5090361;28;20107;-49
2023/09/10 03:48:06;;;;;;;9.48;6.07;;;18.70;99.90;;;;;;5090480;28;20102;-52
2023/09/10 03:50:32;;;;;;;8.38;6.20;;;18.70;99.90;;;;;;5123100;27;20097;-56
2023/09/10 03:52:58;;;;;;;9.05;6.60;;;18.70;99.90;;;;;;5090362;28;20031;-44
2023/09/10 03:55:23;;;;;;;9.20;6.70;;;18.60;99.90;;;;;;5090459;28;20055;-50
2023/09/10 03:57:49;;;;;;;11.02;7.00;;;18.70;99.90;;;;;;5090223;28;20066;-55
2023/09/10 04:00:14;;;;;;;13.52;6.68;;;18.70;99.90;;;;;;5090221;28;20020;-48
2023/09/10 04:02:41;;;;;;;11.48;6.15;;;18.70;99.90;;;;;;5090360;28;20077;-57
2023/09/10 04:05:10;;;;;;;8.05;5.78;;;18.70;99.90;;;;;;5090250;28;20012;-51
2023/09/10 04:07:35;;;;;;;10.43;6.35;;;18.60;99.90;;;;;;5090150;28;20388;-58
2023/09/10 04:10:01;;;;;;;10.00;6.50;;;18.60;99.90;;;;;;5090059;28;20028;-49
2023/09/10 04:12:27;;;;;;;11.65;6.35;;;18.60;99.90;;;;;;5090291;28;20024;-55
2023/09/10 04:14:52;;;;;;;10.75;6.65;;;18.60;99.90;;;;;;5091164;28;20019;-45
2023/09/10 04:17:18;;;;;;;12.77;7.15;;;18.60;99.90;;;;;;5094384;28;20024;-52
2023/09/10 04:19:44;;;;;;;9.02;6.55;;;18.60;99.90;;;;;;5126695;27;20020;-54
2023/09/10 04:22:09;;;;;;;9.88;6.05;;;18.60;99.90;;;;;;5094131;28;20459;-52
2023/09/10 04:24:35;;;;;;;13.20;5.97;;;18.60;99.90;;;;;;5093936;28;20028;-59
2023/09/10 04:27:01;;;;;;;11.48;5.80;;;18.50;99.90;;;;;;5093859;28;20020;-51
2023/09/10 04:29:27;;;;;;;7.20;5.72;;;18.50;99.90;;;;;;5093889;28;20032;-49
2023/09/10 04:31:53;;;;;;;10.00;5.72;;;18.40;99.90;;;;;;5093518;28;20029;-51
2023/09/10 04:34:18;;;;;;;9.57;5.53;;;18.30;99.90;;;;;;5093093;28;20026;-52
2023/09/10 04:36:44;;;;;;;7.90;5.60;;;18.30;99.90;;;;;;5093345;28;20415;-46
2023/09/10 04:39:09;;;;;;;9.75;5.85;;;18.30;99.90;;;;;;5093663;28;20032;-53
2023/09/10 04:41:36;;;;;;;8.60;5.72;;;18.20;99.90;;;;;;5093634;28;20028;-60
2023/09/10 04:44:02;;;;;;;9.30;6.25;;;18.20;99.90;;;;;;5093162;28;20039;-59
2023/09/10 04:46:28;;;;;;;7.63;5.75;;;18.10;99.90;;;;;;5093206;28;20341;-53
2023/09/10 04:48:55;;;;;;;9.10;5.53;;;18.10;99.90;;;;;;5092879;28;20020;-47
2023/09/10 04:51:20;;;;;;;10.45;5.57;;;18.10;99.90;;;;;;5093311;28;20024;-59
2023/09/10 04:53:46;;;;;;;9.68;5.80;;;18.10;99.90;;;;;;5093446;28;20047;-60
2023/09/10 04:56:12;;;;;;;7.20;5.25;;;18.10;99.90;;;;;;5093164;28;20044;-51
2023/09/10 04:58:37;;;;;;;8.38;5.65;;;18.10;99.90;;;;;;5093345;28;20020;-61
2023/09/10 05:01:03;;;;;;;8.30;5.65;;;18.10;99.90;;;;;;5092921;28;20034;-55
2023/09/10 05:03:29;;;;;;;8.13;5.95;;;18.10;99.90;;;;;;5093191;28;20028;-50
2023/09/10 05:05:58;;;;;;;9.57;5.88;;;18.10;99.90;;;;;;5093042;28;20033;-52
2023/09/10 05:08:24;;;;;;;9.85;6.10;;;18.20;99.90;;;;;;5093117;28;20024;-52
2023/09/10 05:10:50;;;;;;;11.10;6.55;;;18.20;99.90;;;;;;5093150;28;20081;-53
2023/09/10 05:13:15;;;;;;;9.07;6.28;;;18.20;99.90;;;;;;5091565;28;20036;-59
2023/09/10 05:15:41;;;;;;;9.80;7.05;;;18.20;99.90;;;;;;5093216;28;20020;-58
2023/09/10 05:18:07;;;;;;;8.82;6.80;;;18.30;99.90;;;;;;5092766;28;20442;-42
2023/09/10 05:20:32;;;;;;;10.35;7.22;;;18.30;99.90;;;;;;5093041;28;20016;-43
2023/09/10 05:22:58;;;;;;;11.40;7.43;;;18.30;99.90;;;;;;5092663;28;20040;-43
2023/09/10 05:25:24;;;;;;;11.80;7.70;;;18.40;99.90;;;;;;5091853;28;20019;-62
2023/09/10 05:27:49;;;;;;;15.55;7.75;;;18.40;99.90;;;;;;5092537;28;20024;-53
2023/09/10 05:30:15;;;;;;;12.05;7.78;;;18.50;99.90;;;;;;5092707;28;20103;-61
2023/09/10 05:32:40;;;;;;;9.75;7.35;;;18.50;99.90;;;;;;5092612;28;20104;-58
2023/09/10 05:35:07;;;;;;;12.25;7.63;;;18.50;99.90;;;;;;5092663;28;20069;-57
2023/09/10 05:37:32;;;;;;;12.38;7.95;;;18.60;99.90;;;;;;5091196;28;20055;-54
2023/09/10 05:39:58;;;;;;;11.13;7.07;;;18.50;99.90;;;;;;5092685;28;20082;-50
2023/09/10 05:42:23;;;;;;;12.85;8.77;;;18.60;99.90;;;;;;5101763;28;20093;-61
2023/09/10 05:44:52;;;;;;;10.73;7.30;;;18.60;99.90;;;;;;5092374;28;20126;-53
2023/09/10 05:47:20;;;;;;;10.07;6.60;;;18.60;99.90;;;;;;5095081;28;20032;-54
2023/09/10 05:49:47;;;;;;;11.65;6.45;;;18.70;99.90;;;;;;5091758;28;20031;-52
2023/09/10 05:52:13;;;;;;;12.40;6.63;;;18.60;99.90;;;;;;5097295;28;20028;-58
2023/09/10 05:54:39;;;;;;;10.57;6.18;;;18.60;99.90;;;;;;5091753;28;20028;-50
2023/09/10 05:57:04;;;;;;;11.95;6.15;;;18.60;99.90;;;;;;5097946;28;20432;-55
2023/09/10 05:59:30;;;;;;;9.55;6.20;;;18.60;99.90;;;;;;5098615;28;20028;-47
2023/09/10 06:01:55;;;;;;;11.32;6.45;;;18.70;99.90;;;;;;5099084;28;20060;-50
2023/09/10 06:04:21;;;;;;;7.75;6.18;;;18.60;99.90;;;;;;5090509;28;20024;-52
2023/09/10 06:06:47;;;;;;;10.57;7.40;;;18.70;99.90;;;;;;5097101;28;20027;-47
2023/09/10 06:09:12;;;;;;;9.88;7.18;;;18.70;99.90;;;;;;5091668;28;20032;-51
2023/09/10 06:11:38;;;;;;;11.30;6.93;;;18.70;99.90;;;;;;5091211;28;20115;-44
2023/09/10 06:14:03;;;;;;;10.65;7.20;;;18.80;99.90;;;;;;5090288;28;20028;-52
2023/09/10 06:16:29;;;;;;;8.73;6.22;;;18.90;99.90;;;;;;5091896;28;20044;-51
2023/09/10 06:18:55;;;;;;;9.95;7.22;;;19.00;99.90;;;;;;5093530;28;20028;-51
2023/09/10 06:21:20;;;;;;;10.27;6.75;;;19.10;99.90;;;;;;5097234;28;20031;-48
2023/09/10 06:23:46;;;;;;;11.93;7.38;;;19.20;99.90;;;;;;5091293;28;20046;-44
2023/09/10 06:26:13;;;;;;;13.90;7.65;;;19.30;99.90;;;;;;5091798;28;20526;-55
2023/09/10 06:28:39;;;;;;;13.02;6.70;;;19.40;99.90;;;;;;5091075;28;20523;-53
2023/09/10 06:31:06;;;;;;;11.10;7.22;;;19.40;99.90;;;;;;5093580;28;20024;-51
2023/09/10 06:33:33;;;;;;;10.98;7.55;;;19.60;99.90;;;;;;5094607;28;20081;-52
2023/09/10 06:35:59;;;;;;;10.50;7.88;;;19.70;99.90;;;;;;5123635;27;20520;-54
2023/09/10 06:38:24;;;;;;;11.20;7.15;;;19.80;99.90;;;;;;5090508;28;20028;-45
2023/09/10 06:40:51;;;;;;;11.48;7.30;;;19.90;99.90;;;;;;5090973;28;20024;-52
2023/09/10 06:43:16;;;;;;;9.85;6.93;;;20.00;99.90;;;;;;5090774;28;20040;-45
2023/09/10 06:45:43;;;;;;;9.48;6.78;;;20.10;99.90;;;;;;5090462;28;20026;-55
2023/09/10 06:48:09;;;;;;;10.15;7.22;;;20.20;99.90;;;;;;5091068;28;20028;-49
2023/09/10 06:50:34;;;;;;;9.68;6.35;;;20.20;99.90;;;;;;5090934;28;20085;-60
2023/09/10 06:53:00;;;;;;;10.50;7.00;;;20.30;99.90;;;;;;5090800;28;20109;-47
2023/09/10 06:55:26;;;;;;;8.65;5.97;;;20.40;99.90;;;;;;5091043;28;20104;-58
2023/09/10 06:57:52;;;;;;;11.75;7.20;;;20.40;99.90;;;;;;5090091;28;20020;-58
2023/09/10 07:00:18;;;;;;;11.13;8.00;;;20.50;99.90;;;;;;5089277;28;20056;-53
2023/09/10 07:02:44;;;;;;;13.23;7.20;;;20.60;99.90;;;;;;5088862;28;20032;-48
2023/09/10 07:05:09;;;;;;;16.27;8.05;;;20.70;99.90;;;;;;5095347;28;20027;-55
2023/09/10 07:07:36;;;;;;;12.45;7.72;;;20.90;99.90;;;;;;5097945;28;20388;-45
2023/09/10 07:10:02;;;;;;;14.20;7.03;;;21.30;99.90;;;;;;5090320;28;20101;-57
2023/09/10 07:12:28;;;;;;;13.00;7.22;;;21.90;99.90;;;;;;5094626;28;20031;-52
2023/09/10 07:14:53;;;;;;;9.40;6.80;;;22.60;99.90;;;;;;5090515;28;20020;-53
2023/09/10 07:17:19;;;;;;;8.73;6.72;;;23.20;99.90;;;;;;5091158;28;20016;-50
2023/09/10 07:19:45;;;;;;;10.38;6.38;;;23.90;99.90;;;;;;5102154;28;20491;-57
2023/09/10 07:22:10;;;;;;;7.82;5.70;;;24.30;99.90;;;;;;5098731;28;20016;-55
2023/09/10 07:24:36;;;;;;;9.57;6.03;;;24.60;99.90;;;;;;5102341;28;20476;-55
2023/09/10 07:27:02;;;;;;;10.00;5.70;;;25.10;99.90;;;;;;5095802;28;20017;-48
2023/09/10 07:29:28;;;;;;;11.57;7.03;;;25.60;99.90;;;;;;5098883;28;20031;-54
2023/09/10 07:31:54;;;;;;;7.40;5.55;;;26.10;99.90;;;;;;5100314;28;20020;-54
2023/09/10 07:34:20;;;;;;;10.27;5.90;;;26.50;99.90;;;;;;5096017;28;20020;-51
2023/09/10 07:36:46;;;;;;;11.45;5.43;;;27.00;99.90;;;;;;5101635;28;20055;-44
2023/09/10 07:39:13;;;;;;;7.18;5.40;;;27.30;99.90;;;;;;5098271;28;20494;-53
2023/09/10 07:41:39;;;;;;;7.72;5.28;;;27.50;99.90;;;;;;5110250;28;20476;-51
2023/09/10 07:44:05;;;;;;;8.05;5.53;;;27.90;99.90;;;;;;5090091;28;20057;-58
2023/09/10 07:46:33;;;;;;;8.40;4.97;;;28.20;99.90;;;;;;5094213;28;20028;-43
2023/09/10 07:48:58;;;;;;;11.57;5.60;;;28.10;99.90;;;;;;5099255;28;20023;-56
2023/09/10 07:51:24;;;;;;;9.65;5.57;;;28.30;99.90;;;;;;5108476;28;20425;-47
2023/09/10 07:53:49;;;;;;;6.97;5.05;;;28.30;99.90;;;;;;5102967;28;20024;-52
2023/09/10 07:56:15;;;;;;;8.68;5.47;;;28.40;99.90;;;;;;5111348;28;20028;-56
2023/09/10 07:58:41;;;;;;;7.35;5.28;;;28.40;99.90;;;;;;5111349;28;20028;-53
2023/09/10 08:01:06;;;;;;;8.15;5.55;;;28.20;99.90;;;;;;5109126;28;20107;-59
2023/09/10 08:03:34;;;;;;;9.50;5.40;;;28.20;99.90;;;;;;5095715;28;20139;-45
2023/09/10 08:05:59;;;;;;;9.77;5.22;;;28.60;99.90;;;;;;5109771;28;20023;-44
2023/09/10 08:08:25;;;;;;;8.55;5.35;;;29.00;99.90;;;;;;5099493;28;20027;-49
2023/09/10 08:10:50;;;;;;;8.77;5.30;;;29.30;99.90;;;;;;5113434;28;20020;-44
2023/09/10 08:13:16;;;;;;;6.43;4.57;;;29.50;99.90;;;;;;5109314;28;20016;-47
2023/09/10 08:15:42;;;;;;;6.70;5.30;;;29.80;99.90;;;;;;5110377;28;20039;-47
2023/09/10 08:18:11;;;;;;;8.18;5.22;;;29.90;99.90;;;;;;5109289;28;20036;-52
2023/09/10 08:20:40;;;;;;;6.07;4.97;;;30.10;99.90;;;;;;5107022;28;20020;-55
2023/09/10 08:23:07;;;;;;;7.18;5.07;;;30.30;99.90;;;;;;5103888;28;20074;-55
2023/09/10 08:25:32;;;;;;;8.80;5.43;;;30.60;99.90;;;;;;5100019;28;20085;-47
2023/09/10 08:27:59;;;;;;;7.80;4.60;;;30.60;99.90;;;;;;5104247;28;20027;-47
2023/09/10 08:30:25;;;;;;;6.25;4.75;;;30.70;99.90;;;;;;5102570;28;20020;-47
2023/09/10 08:32:51;;;;;;;8.13;4.93;;;30.90;99.90;;;;;;5112142;28;20030;-44
2023/09/10 08:35:21;;;;;;;8.05;4.82;;;30.80;99.90;;;;;;5109636;28;20447;-48
2023/09/10 08:37:47;;;;;;;6.85;4.95;;;31.20;99.90;;;;;;5111328;28;20436;-52
2023/09/10 08:40:15;;;;;;;6.78;4.70;;;31.30;99.90;;;;;;5099933;28;20094;-49
2023/09/10 08:43:01;;;;;;;6.55;4.32;;;31.40;99.90;;;;;;5109287;28;20812;-50
2023/09/10 08:45:27;;;;;;;7.78;4.60;;;31.30;99.90;;;;;;5125958;27;20024;-44
2023/09/10 08:47:55;;;;;;;9.40;4.60;;;31.50;99.90;;;;;;5099310;28;20388;-46
2023/09/10 08:50:23;;;;;;;6.47;4.95;;;31.80;99.90;;;;;;5126380;27;20051;-47
2023/09/10 08:52:49;;;;;;;7.32;5.30;;;32.00;99.90;;;;;;5108622;28;20027;-60
2023/09/10 08:55:15;;;;;;;8.13;4.30;;;32.10;99.90;;;;;;5102996;28;20023;-50
2023/09/10 08:57:43;;;;;;;6.10;4.13;;;32.60;99.90;;;;;;5097958;28;20042;-56
2023/09/10 09:00:12;;;;;;;5.63;3.97;;;33.00;99.90;;;;;;5092318;28;20069;-46
2023/09/10 09:02:41;;;;;;;;;;;33.40;99.90;;;;;;5095308;28;20040;-55
2023/09/10 09:05:08;;;;;;;9.25;4.95;;;33.80;99.40;;;;;;5093702;28;19908;-53
2023/09/10 09:07:45;;;;;;;7.72;4.18;;;33.80;98.70;;;;;;5090506;28;20020;-47
2023/09/10 09:10:17;;;;;;;6.25;4.35;;;33.90;98.30;;;;;;5090516;28;20608;-47
2023/09/10 09:12:43;;;;;;;6.32;3.83;;;34.10;98.00;;;;;;5090127;28;20375;-51
2023/09/10 09:15:09;;;;;;;6.75;3.80;;;34.10;96.80;;;;;;5090430;28;20054;-55
2023/09/10 09:17:38;;;;;;;6.93;4.18;;;34.10;97.30;;;;;;5090106;28;20020;-47
2023/09/10 09:20:10;;;;;;;6.93;4.28;;;33.30;96.90;;;;;;5091705;28;20028;-46
2023/09/10 09:22:36;;;;;;;9.63;4.25;;;32.70;96.40;;;;;;5091970;28;20047;-45
2023/09/10 09:25:03;;;;;;;4.88;3.70;;;32.20;97.40;;;;;;5092044;28;20077;-44
2023/09/10 09:27:29;;;;;;;6.32;3.58;;;32.10;97.00;;;;;;5091725;28;20107;-44
2023/09/10 09:29:55;;;;;;;6.57;3.95;;;31.90;98.30;;;;;;5091844;28;20027;-45
2023/09/10 09:32:21;;;;;;;5.88;3.95;;;31.80;98.40;;;;;;5084998;28;20024;-55
2023/09/10 09:34:46;;;;;;;9.43;4.28;;;31.70;98.60;;;;;;5091857;28;20099;-57
2023/09/10 09:37:19;;;;;;;6.57;4.03;;;31.70;98.20;;;;;;5090323;28;20028;-57
2023/09/10 09:39:45;;;;;;;5.55;3.92;;;31.60;97.60;;;;;;5091702;28;20020;-52
2023/09/10 09:42:11;;;;;;;5.75;3.75;;;31.90;99.40;;;;;;5091180;28;20454;-60
2023/09/10 09:44:36;;;;;;;6.93;4.05;;;31.90;98.90;;;;;;5091730;28;20032;-54
2023/09/10 09:47:02;;;;;;;5.53;4.05;;;32.20;99.10;;;;;;5090494;28;20024;-49
2023/09/10 09:49:28;;;;;;;8.88;4.00;;;32.20;96.50;;;;;;5091721;28;20032;-48
2023/09/10 09:51:54;;;;;;;6.38;3.60;;;32.00;96.40;;;;;;5091621;28;20073;-51
2023/09/10 09:54:20;;;;;;;7.60;3.88;;;31.80;95.70;;;;;;5091651;28;20028;-55
2023/09/10 09:56:46;;;;;;;7.07;3.63;;;31.50;95.90;;;;;;5090489;28;20055;-48
2023/09/10 09:59:11;;;;;;;8.73;3.92;;;31.50;96.90;;;;;;5091092;28;20038;-57
2023/09/10 10:01:39;;;;;;;7.05;3.97;;;32.30;96.90;;;;;;5091712;28;20062;-57
2023/09/10 10:04:05;;;;;;;5.68;3.42;;;32.60;96.80;;;;;;5091931;28;20032;-58
2023/09/10 10:06:31;;;;;;;6.70;3.25;;;33.00;98.10;;;;;;5091420;28;20515;-48
2023/09/10 10:08:57;;;;;;;5.57;3.40;;;33.40;97.50;;;;;;5091930;28;20032;-57
2023/09/10 10:11:30;;;;;;;5.88;3.40;;;33.40;96.90;;;;;;5091469;28;20805;-53
2023/09/10 10:13:59;;;;;;;6.68;3.33;;;33.40;96.80;;;;;;5090969;28;20054;-53
2023/09/10 10:16:29;;;;;;;4.13;3.13;;;33.50;96.50;;;;;;5091472;28;20016;-47
2023/09/10 10:18:55;;;;;;;4.80;3.15;;;33.50;94.90;;;;;;5091452;28;20035;-48
2023/09/10 10:21:24;;;;;;;4.85;2.90;;;33.60;95.10;;;;;;5091261;28;20103;-53
2023/09/10 10:23:56;;;;;;;5.38;3.28;;;33.50;94.30;;;;;;5083039;28;20428;-47
2023/09/10 10:26:22;;;;;;;5.85;3.42;;;33.30;92.80;;;;;;5084654;28;20025;-51
2023/09/10 10:28:49;;;;;;;4.88;3.13;;;32.90;92.00;;;;;;5091056;28;20472;-45
2023/09/10 10:31:31;;;;;;;4.35;2.80;;;32.90;91.70;;;;;;5085910;28;20024;-48
2023/09/10 10:34:14;;;;;;;4.35;2.85;;;33.10;92.40;;;;;;5087835;28;20020;-56
2023/09/10 10:37:01;;;;;;;6.28;2.53;;;33.50;91.80;;;;;;5090785;28;20024;-47
2023/09/10 10:40:08;;;;;;;5.40;2.93;;;33.70;92.10;;;;;;5089112;28;20016;-53
2023/09/10 10:42:59;;;;;;;7.18;2.90;;;33.90;91.70;;;;;;5082746;28;20043;-46
2023/09/10 10:45:26;;;;;;;5.88;3.00;;;33.90;91.10;;;;;;5093526;28;20396;-55
2023/09/10 10:47:53;;;;;;;6.85;3.47;;;33.80;90.70;;;;;;5084519;28;20027;-60
2023/09/10 10:50:26;;;;;;;5.22;2.90;;;34.10;90.30;;;;;;5089067;28;20043;-60
2023/09/10 10:52:58;;;;;;;4.78;2.90;;;33.70;91.40;;;;;;5088478;28;20019;-54
2023/09/10 10:55:25;;;;;;;4.38;2.60;;;33.40;91.40;;;;;;5090635;28;20058;-43
2023/09/10 10:57:53;;;;;;;4.50;2.90;;;32.90;90.50;;;;;;5090785;28;20028;-43
2023/09/10 11:00:20;;;;;;;5.53;2.72;;;32.30;90.60;;;;;;5090676;28;20089;-43
2023/09/10 11:02:49;;;;;;;5.57;2.78;;;32.10;91.40;;;;;;5090762;28;20040;-54
2023/09/10 11:05:14;;;;;;;5.35;2.72;;;32.00;91.80;;;;;;5089665;28;20020;-58
2023/09/10 11:07:40;;;;;;;6.03;2.67;;;32.00;91.50;;;;;;5089340;28;20533;-61
2023/09/10 11:10:25;;;;;;;5.05;2.60;;;32.00;91.20;;;;;;5088021;28;20047;-53
2023/09/10 11:13:04;;;;;;;7.03;3.28;;;32.40;91.00;;;;;;5077766;28;20437;-49
2023/09/10 11:15:30;;;;;;;4.13;2.42;;;32.60;90.40;;;;;;5089934;28;20028;-51
2023/09/10 11:18:34;;;;;;;5.53;2.85;;;32.80;90.00;;;;;;5087170;28;20039;-47
2023/09/10 11:21:00;;;;;;;6.20;2.65;;;32.60;88.50;;;;;;5083439;28;20016;-50
2023/09/10 11:23:25;;;;;;;5.55;2.63;;;33.10;88.10;;;;;;5082706;28;20055;-50
2023/09/10 11:25:51;;;;;;;5.40;3.00;;;33.20;87.50;;;;;;5079477;28;20020;-55
2023/09/10 11:28:40;;;;;;;3.65;2.50;;;33.40;89.30;;;;;;5084761;28;20021;-52
2023/09/10 11:31:38;;;;;;;4.90;2.67;;;33.50;88.30;;;;;;5080606;28;20480;-62
2023/09/10 11:34:16;;;;;;;7.10;3.30;;;33.30;86.80;;;;;;5083413;28;20082;-54
2023/09/10 11:37:09;;;;;;;6.50;2.35;;;33.20;89.50;;;;;;5072442;28;20024;-57
2023/09/10 11:39:36;;;;;;;5.00;2.83;;;33.10;89.00;;;;;;5081343;28;20036;-55
2023/09/10 11:42:04;;;;;;;6.53;2.80;;;33.10;87.80;;;;;;5078746;28;20094;-46
2023/09/10 11:44:31;;;;;;;3.78;2.35;;;33.10;87.10;;;;;;5088964;28;20076;-44
2023/09/10 11:46:56;;;;;;;5.22;2.85;;;33.10;89.30;;;;;;5089316;28;20093;-47
2023/09/10 11:49:24;;;;;;;6.32;2.78;;;33.30;89.60;;;;;;5089633;28;20077;-60
2023/09/10 11:51:53;;;;;;;5.63;2.75;;;33.40;87.70;;;;;;5089716;28;20055;-57
2023/09/10 11:54:19;;;;;;;3.63;2.58;;;33.10;88.10;;;;;;5079491;28;20025;-56
2023/09/10 11:56:56;;;;;;;6.10;2.90;;;33.10;88.40;;;;;;5087616;28;20507;-57
2023/09/10 11:59:29;;;;;;;6.05;2.80;;;32.80;89.50;;;;;;5090181;28;20468;-52
2023/09/10 12:01:55;;;;;;;5.13;2.47;;;32.80;87.30;;;;;;5089914;28;20500;-53
2023/09/10 12:04:28;;;;;;;4.63;2.42;;;32.90;88.60;;;;;;5089842;28;20059;-59
2023/09/10 12:06:54;;;;;;;6.22;2.17;;;32.70;85.30;;;;;;5089578;28;20016;-58
2023/09/10 12:09:20;;;;;;;3.55;2.38;;;32.70;86.80;;;;;;5089757;28;20115;-57
2023/09/10 12:11:47;;;;;;;7.68;2.72;;;32.40;83.80;;;;;;5080751;28;20392;-44
2023/09/10 12:14:13;;;;;;;4.33;2.47;;;32.40;85.30;;;;;;5089777;28;20094;-50
2023/09/10 12:16:39;;;;;;;6.85;2.78;;;32.40;89.40;;;;;;5089748;28;20024;-63
2023/09/10 12:19:06;;;;;;;6.10;2.40;;;32.50;84.50;;;;;;5089961;28;20028;-48
2023/09/10 12:21:31;;;;;;;4.18;2.28;;;33.30;84.00;;;;;;5089565;28;20028;-55
2023/09/10 12:23:57;;;;;;;5.07;2.10;;;32.40;84.50;;;;;;5089821;28;20069;-53
2023/09/10 12:26:23;;;;;;;3.90;2.40;;;32.20;86.10;;;;;;5084928;28;20142;-53
2023/09/10 12:28:52;;;;;;;3.90;2.33;;;32.10;84.20;;;;;;5089602;28;20036;-55
2023/09/10 12:31:17;;;;;;;4.32;2.53;;;31.80;85.40;;;;;;5089675;28;20005;-50
2023/09/10 12:33:45;;;;;;;5.72;2.67;;;31.80;87.70;;;;;;5089027;28;20032;-52
2023/09/10 12:36:11;;;;;;;3.90;2.50;;;31.90;86.60;;;;;;5090035;28;20024;-54
2023/09/10 12:38:36;;;;;;;7.43;2.67;;;30.40;87.40;;;;;;5085817;28;20051;-54
2023/09/10 12:41:02;;;;;;;5.65;2.38;;;31.90;85.00;;;;;;5089166;28;20397;-53
2023/09/10 12:43:28;;;;;;;10.13;2.90;;;32.10;87.00;;;;;;5087791;28;20050;-47
2023/09/10 12:45:55;;;;;;;4.85;2.75;;;32.10;83.50;;;;;;5081420;28;20480;-44